sensor_id;sensor_type;location;lat;lon;timestamp;P1;durP1;ratioP1;P2;durP2;ratioP2
64367;SDS011;50692;53.314;-6.300;2022-10-31T00:02:31;5.82;;;2.03;;
64367;SDS011;50692;53.314;-6.300;2022-10-31T00:05:17;4.10;;;1.60;;
64367;SDS011;50692;53.314;-6.300;2022-10-31T00:08:03;3.47;;;1.20;;
64367;SDS011;50692;53.314;-6.300;2022-10-31T00:10:49;5.03;;;1.33;;
64367;SDS011;50692;53.314;-6.300;2022-10-31T00:13:34;2.53;;;1.60;;
64367;SDS011;50692;53.314;-6.300;2022-10-31T00:16:21;3.10;;;1.40;;
64367;SDS011;50692;53.314;-6.300;2022-10-31T00:19:09;4.20;;;1.73;;
64367;SDS011;50692;53.314;-6.300;2022-10-31T00:21:55;6.32;;;3.28;;
64367;SDS011;50692;53.314;-6.300;2022-10-31T00:24:40;4.90;;;1.75;;
64367;SDS011;50692;53.314;-6.300;2022-10-31T00:27:26;4.57;;;1.95;;
64367;SDS011;50692;53.314;-6.300;2022-10-31T00:30:12;3.40;;;1.85;;
64367;SDS011;50692;53.314;-6.300;2022-10-31T00:32:58;5.00;;;1.83;;
64367;SDS011;50692;53.314;-6.300;2022-10-31T00:35:48;5.45;;;1.50;;
64367;SDS011;50692;53.314;-6.300;2022-10-31T00:38:36;5.13;;;2.15;;
64367;SDS011;50692;53.314;-6.300;2022-10-31T00:41:21;5.50;;;1.63;;
64367;SDS011;50692;53.314;-6.300;2022-10-31T00:44:07;5.80;;;2.15;;
64367;SDS011;50692;53.314;-6.300;2022-10-31T00:46:53;4.18;;;1.45;;
64367;SDS011;50692;53.314;-6.300;2022-10-31T00:49:39;6.47;;;1.98;;
64367;SDS011;50692;53.314;-6.300;2022-10-31T00:52:25;6.03;;;2.85;;
64367;SDS011;50692;53.314;-6.300;2022-10-31T00:55:10;5.10;;;2.00;;
64367;SDS011;50692;53.314;-6.300;2022-10-31T00:57:56;7.32;;;1.85;;
64367;SDS011;50692;53.314;-6.300;2022-10-31T01:00:42;5.30;;;2.03;;
64367;SDS011;50692;53.314;-6.300;2022-10-31T01:03:29;3.90;;;1.83;;
64367;SDS011;50692;53.314;-6.300;2022-10-31T01:06:16;4.03;;;1.70;;
64367;SDS011;50692;53.314;-6.300;2022-10-31T01:09:02;6.50;;;1.70;;
64367;SDS011;50692;53.314;-6.300;2022-10-31T01:11:48;4.30;;;1.73;;
64367;SDS011;50692;53.314;-6.300;2022-10-31T01:14:34;4.68;;;1.83;;
64367;SDS011;50692;53.314;-6.300;2022-10-31T01:17:19;3.60;;;1.50;;
64367;SDS011;50692;53.314;-6.300;2022-10-31T01:20:06;7.43;;;1.75;;
64367;SDS011;50692;53.314;-6.300;2022-10-31T01:22:53;5.40;;;1.00;;
64367;SDS011;50692;53.314;-6.300;2022-10-31T01:25:39;4.05;;;1.40;;
64367;SDS011;50692;53.314;-6.300;2022-10-31T01:28:25;4.43;;;1.75;;
64367;SDS011;50692;53.314;-6.300;2022-10-31T01:31:11;2.97;;;1.67;;
64367;SDS011;50692;53.314;-6.300;2022-10-31T01:33:58;3.10;;;1.40;;
64367;SDS011;50692;53.314;-6.300;2022-10-31T01:36:45;2.03;;;1.05;;
64367;SDS011;50692;53.314;-6.300;2022-10-31T01:39:32;3.40;;;2.00;;
64367;SDS011;50692;53.314;-6.300;2022-10-31T01:42:19;4.47;;;1.17;;
64367;SDS011;50692;53.314;-6.300;2022-10-31T01:45:09;4.85;;;1.63;;
64367;SDS011;50692;53.314;-6.300;2022-10-31T01:47:55;3.58;;;1.70;;
64367;SDS011;50692;53.314;-6.300;2022-10-31T01:50:41;3.30;;;1.38;;
64367;SDS011;50692;53.314;-6.300;2022-10-31T01:53:29;1.92;;;1.13;;
64367;SDS011;50692;53.314;-6.300;2022-10-31T01:56:15;5.15;;;1.23;;
64367;SDS011;50692;53.314;-6.300;2022-10-31T01:59:04;5.28;;;1.63;;
64367;SDS011;50692;53.314;-6.300;2022-10-31T02:04:39;4.22;;;1.52;;
64367;SDS011;50692;53.314;-6.300;2022-10-31T02:07:27;4.63;;;1.50;;
64367;SDS011;50692;53.314;-6.300;2022-10-31T02:10:20;7.00;;;1.33;;
64367;SDS011;50692;53.314;-6.300;2022-10-31T02:13:07;3.47;;;1.70;;
64367;SDS011;50692;53.314;-6.300;2022-10-31T02:15:54;5.03;;;2.08;;
64367;SDS011;50692;53.314;-6.300;2022-10-31T02:18:43;5.95;;;1.80;;
64367;SDS011;50692;53.314;-6.300;2022-10-31T02:21:35;4.13;;;1.58;;
64367;SDS011;50692;53.314;-6.300;2022-10-31T02:28:19;3.33;;;1.23;;
64367;SDS011;50692;53.314;-6.300;2022-10-31T02:37:39;4.88;;;1.60;;
64367;SDS011;50692;53.314;-6.300;2022-10-31T02:40:38;4.35;;;1.60;;
64367;SDS011;50692;53.314;-6.300;2022-10-31T02:43:49;4.30;;;1.52;;
64367;SDS011;50692;53.314;-6.300;2022-10-31T02:52:32;4.45;;;1.35;;
64367;SDS011;50692;53.314;-6.300;2022-10-31T02:58:09;7.07;;;1.50;;
64367;SDS011;50692;53.314;-6.300;2022-10-31T03:04:17;5.97;;;1.65;;
64367;SDS011;50692;53.314;-6.300;2022-10-31T03:07:31;4.07;;;1.60;;
64367;SDS011;50692;53.314;-6.300;2022-10-31T03:19:38;3.15;;;1.27;;
64367;SDS011;50692;53.314;-6.300;2022-10-31T03:22:26;5.40;;;2.00;;
64367;SDS011;50692;53.314;-6.300;2022-10-31T03:25:15;3.85;;;1.60;;
64367;SDS011;50692;53.314;-6.300;2022-10-31T03:28:02;6.28;;;2.13;;
64367;SDS011;50692;53.314;-6.300;2022-10-31T03:30:51;4.80;;;1.83;;
64367;SDS011;50692;53.314;-6.300;2022-10-31T03:33:38;4.88;;;1.75;;
64367;SDS011;50692;53.314;-6.300;2022-10-31T03:36:26;7.07;;;1.77;;
64367;SDS011;50692;53.314;-6.300;2022-10-31T03:39:15;2.17;;;1.00;;
64367;SDS011;50692;53.314;-6.300;2022-10-31T03:42:05;2.13;;;1.10;;
64367;SDS011;50692;53.314;-6.300;2022-10-31T03:45:16;3.35;;;1.45;;
64367;SDS011;50692;53.314;-6.300;2022-10-31T03:48:04;2.40;;;0.90;;
64367;SDS011;50692;53.314;-6.300;2022-10-31T03:50:55;1.52;;;0.93;;
64367;SDS011;50692;53.314;-6.300;2022-10-31T03:53:54;4.25;;;1.40;;
64367;SDS011;50692;53.314;-6.300;2022-10-31T03:56:53;5.75;;;1.50;;
64367;SDS011;50692;53.314;-6.300;2022-10-31T03:59:42;5.28;;;1.40;;
64367;SDS011;50692;53.314;-6.300;2022-10-31T04:02:33;8.98;;;1.60;;
64367;SDS011;50692;53.314;-6.300;2022-10-31T04:05:23;4.43;;;1.30;;
64367;SDS011;50692;53.314;-6.300;2022-10-31T04:08:10;3.58;;;1.33;;
64367;SDS011;50692;53.314;-6.300;2022-10-31T04:11:00;3.88;;;1.42;;
64367;SDS011;50692;53.314;-6.300;2022-10-31T04:13:49;2.67;;;1.00;;
64367;SDS011;50692;53.314;-6.300;2022-10-31T04:16:37;4.35;;;1.00;;
64367;SDS011;50692;53.314;-6.300;2022-10-31T04:19:26;3.72;;;1.20;;
64367;SDS011;50692;53.314;-6.300;2022-10-31T04:22:12;4.53;;;1.17;;
64367;SDS011;50692;53.314;-6.300;2022-10-31T04:24:58;4.30;;;1.20;;
64367;SDS011;50692;53.314;-6.300;2022-10-31T04:27:44;3.80;;;1.17;;
64367;SDS011;50692;53.314;-6.300;2022-10-31T04:30:30;4.05;;;1.90;;
64367;SDS011;50692;53.314;-6.300;2022-10-31T04:33:16;3.67;;;1.20;;
64367;SDS011;50692;53.314;-6.300;2022-10-31T04:36:02;4.47;;;1.40;;
64367;SDS011;50692;53.314;-6.300;2022-10-31T04:38:49;3.45;;;1.48;;
64367;SDS011;50692;53.314;-6.300;2022-10-31T04:41:35;3.58;;;1.27;;
64367;SDS011;50692;53.314;-6.300;2022-10-31T04:44:21;6.85;;;1.30;;
64367;SDS011;50692;53.314;-6.300;2022-10-31T04:47:07;6.88;;;1.33;;
64367;SDS011;50692;53.314;-6.300;2022-10-31T04:49:53;3.75;;;1.23;;
64367;SDS011;50692;53.314;-6.300;2022-10-31T04:52:42;0.95;;;0.63;;
64367;SDS011;50692;53.314;-6.300;2022-10-31T04:55:28;3.85;;;1.25;;
64367;SDS011;50692;53.314;-6.300;2022-10-31T04:58:14;4.57;;;1.83;;
64367;SDS011;50692;53.314;-6.300;2022-10-31T05:01:00;4.05;;;1.30;;
64367;SDS011;50692;53.314;-6.300;2022-10-31T05:03:46;3.22;;;1.40;;
64367;SDS011;50692;53.314;-6.300;2022-10-31T05:06:32;7.40;;;1.80;;
64367;SDS011;50692;53.314;-6.300;2022-10-31T05:09:18;3.30;;;1.33;;
64367;SDS011;50692;53.314;-6.300;2022-10-31T05:12:03;3.33;;;1.38;;
64367;SDS011;50692;53.314;-6.300;2022-10-31T05:14:49;3.70;;;1.30;;
64367;SDS011;50692;53.314;-6.300;2022-10-31T05:17:35;6.05;;;1.95;;
64367;SDS011;50692;53.314;-6.300;2022-10-31T05:20:22;5.10;;;1.80;;
64367;SDS011;50692;53.314;-6.300;2022-10-31T05:23:12;3.67;;;1.60;;
64367;SDS011;50692;53.314;-6.300;2022-10-31T05:25:58;4.93;;;1.48;;
64367;SDS011;50692;53.314;-6.300;2022-10-31T05:28:44;7.78;;;1.85;;
64367;SDS011;50692;53.314;-6.300;2022-10-31T05:31:30;5.43;;;1.50;;
64367;SDS011;50692;53.314;-6.300;2022-10-31T05:34:15;4.03;;;1.30;;
64367;SDS011;50692;53.314;-6.300;2022-10-31T05:37:01;3.42;;;1.45;;
64367;SDS011;50692;53.314;-6.300;2022-10-31T05:39:47;5.95;;;1.25;;
64367;SDS011;50692;53.314;-6.300;2022-10-31T05:42:33;5.93;;;1.55;;
64367;SDS011;50692;53.314;-6.300;2022-10-31T05:45:19;2.97;;;0.93;;
64367;SDS011;50692;53.314;-6.300;2022-10-31T05:48:05;2.45;;;0.80;;
64367;SDS011;50692;53.314;-6.300;2022-10-31T05:50:51;4.30;;;0.95;;
64367;SDS011;50692;53.314;-6.300;2022-10-31T05:53:37;2.85;;;1.10;;
64367;SDS011;50692;53.314;-6.300;2022-10-31T05:56:23;3.97;;;1.00;;
64367;SDS011;50692;53.314;-6.300;2022-10-31T05:59:09;3.72;;;1.20;;
64367;SDS011;50692;53.314;-6.300;2022-10-31T06:01:54;3.92;;;1.10;;
64367;SDS011;50692;53.314;-6.300;2022-10-31T06:04:40;3.75;;;1.05;;
64367;SDS011;50692;53.314;-6.300;2022-10-31T06:07:26;3.03;;;1.25;;
64367;SDS011;50692;53.314;-6.300;2022-10-31T06:10:12;7.25;;;1.40;;
64367;SDS011;50692;53.314;-6.300;2022-10-31T06:12:58;4.55;;;1.33;;
64367;SDS011;50692;53.314;-6.300;2022-10-31T06:15:45;6.05;;;1.60;;
64367;SDS011;50692;53.314;-6.300;2022-10-31T06:18:30;4.63;;;1.50;;
64367;SDS011;50692;53.314;-6.300;2022-10-31T06:21:17;3.13;;;1.02;;
64367;SDS011;50692;53.314;-6.300;2022-10-31T06:24:02;3.58;;;1.40;;
64367;SDS011;50692;53.314;-6.300;2022-10-31T06:26:49;3.05;;;1.40;;
64367;SDS011;50692;53.314;-6.300;2022-10-31T06:29:34;3.20;;;1.48;;
64367;SDS011;50692;53.314;-6.300;2022-10-31T06:32:20;5.07;;;1.40;;
64367;SDS011;50692;53.314;-6.300;2022-10-31T06:35:06;2.78;;;1.23;;
64367;SDS011;50692;53.314;-6.300;2022-10-31T06:37:55;4.15;;;1.67;;
64367;SDS011;50692;53.314;-6.300;2022-10-31T06:40:41;5.13;;;1.67;;
64367;SDS011;50692;53.314;-6.300;2022-10-31T06:43:26;6.88;;;1.45;;
64367;SDS011;50692;53.314;-6.300;2022-10-31T06:46:12;5.13;;;1.30;;
64367;SDS011;50692;53.314;-6.300;2022-10-31T06:48:58;1.92;;;1.15;;
64367;SDS011;50692;53.314;-6.300;2022-10-31T06:51:47;4.97;;;1.50;;
64367;SDS011;50692;53.314;-6.300;2022-10-31T06:54:33;3.22;;;1.30;;
64367;SDS011;50692;53.314;-6.300;2022-10-31T06:57:19;3.10;;;1.50;;
64367;SDS011;50692;53.314;-6.300;2022-10-31T07:00:05;4.45;;;1.38;;
64367;SDS011;50692;53.314;-6.300;2022-10-31T07:06:05;4.05;;;1.20;;
64367;SDS011;50692;53.314;-6.300;2022-10-31T07:08:51;5.28;;;1.77;;
64367;SDS011;50692;53.314;-6.300;2022-10-31T07:11:37;2.03;;;1.00;;
64367;SDS011;50692;53.314;-6.300;2022-10-31T07:14:22;3.72;;;1.00;;
64367;SDS011;50692;53.314;-6.300;2022-10-31T07:17:08;3.03;;;0.80;;
64367;SDS011;50692;53.314;-6.300;2022-10-31T07:19:54;4.90;;;1.40;;
64367;SDS011;50692;53.314;-6.300;2022-10-31T07:22:40;3.22;;;1.30;;
64367;SDS011;50692;53.314;-6.300;2022-10-31T07:25:26;4.05;;;1.60;;
64367;SDS011;50692;53.314;-6.300;2022-10-31T07:28:12;8.85;;;2.17;;
64367;SDS011;50692;53.314;-6.300;2022-10-31T07:30:59;6.47;;;1.50;;
64367;SDS011;50692;53.314;-6.300;2022-10-31T07:33:45;6.57;;;1.60;;
64367;SDS011;50692;53.314;-6.300;2022-10-31T07:36:31;5.25;;;1.80;;
64367;SDS011;50692;53.314;-6.300;2022-10-31T07:39:16;4.72;;;1.50;;
64367;SDS011;50692;53.314;-6.300;2022-10-31T07:42:02;4.22;;;1.60;;
64367;SDS011;50692;53.314;-6.300;2022-10-31T07:44:48;4.60;;;1.40;;
64367;SDS011;50692;53.314;-6.300;2022-10-31T07:47:40;3.83;;;1.40;;
64367;SDS011;50692;53.314;-6.300;2022-10-31T07:50:28;3.63;;;1.60;;
64367;SDS011;50692;53.314;-6.300;2022-10-31T07:53:16;4.75;;;1.45;;
64367;SDS011;50692;53.314;-6.300;2022-10-31T07:56:01;1.98;;;0.82;;
64367;SDS011;50692;53.314;-6.300;2022-10-31T07:58:47;4.07;;;1.40;;
64367;SDS011;50692;53.314;-6.300;2022-10-31T08:01:33;4.32;;;1.35;;
64367;SDS011;50692;53.314;-6.300;2022-10-31T08:04:19;3.75;;;1.35;;
64367;SDS011;50692;53.314;-6.300;2022-10-31T08:07:05;5.25;;;1.45;;
64367;SDS011;50692;53.314;-6.300;2022-10-31T08:09:50;5.18;;;1.70;;
64367;SDS011;50692;53.314;-6.300;2022-10-31T08:12:36;4.38;;;1.70;;
64367;SDS011;50692;53.314;-6.300;2022-10-31T08:15:22;3.85;;;1.42;;
64367;SDS011;50692;53.314;-6.300;2022-10-31T08:18:12;5.68;;;1.83;;
64367;SDS011;50692;53.314;-6.300;2022-10-31T08:20:59;5.15;;;1.52;;
64367;SDS011;50692;53.314;-6.300;2022-10-31T08:23:45;4.65;;;1.60;;
64367;SDS011;50692;53.314;-6.300;2022-10-31T08:26:31;6.93;;;1.73;;
64367;SDS011;50692;53.314;-6.300;2022-10-31T08:29:16;4.20;;;1.58;;
64367;SDS011;50692;53.314;-6.300;2022-10-31T08:32:02;6.20;;;2.00;;
64367;SDS011;50692;53.314;-6.300;2022-10-31T08:34:48;2.90;;;1.23;;
64367;SDS011;50692;53.314;-6.300;2022-10-31T08:37:34;5.18;;;1.63;;
64367;SDS011;50692;53.314;-6.300;2022-10-31T08:40:20;3.80;;;1.33;;
64367;SDS011;50692;53.314;-6.300;2022-10-31T08:43:06;4.05;;;1.60;;
64367;SDS011;50692;53.314;-6.300;2022-10-31T08:45:56;5.90;;;2.05;;
64367;SDS011;50692;53.314;-6.300;2022-10-31T08:48:42;7.50;;;1.85;;
64367;SDS011;50692;53.314;-6.300;2022-10-31T08:51:29;3.78;;;1.85;;
64367;SDS011;50692;53.314;-6.300;2022-10-31T08:54:14;5.20;;;2.15;;
64367;SDS011;50692;53.314;-6.300;2022-10-31T08:57:00;6.82;;;2.10;;
64367;SDS011;50692;53.314;-6.300;2022-10-31T08:59:46;3.10;;;1.48;;
64367;SDS011;50692;53.314;-6.300;2022-10-31T09:02:32;5.90;;;1.95;;
64367;SDS011;50692;53.314;-6.300;2022-10-31T09:05:17;4.90;;;1.95;;
64367;SDS011;50692;53.314;-6.300;2022-10-31T09:08:04;4.25;;;1.75;;
64367;SDS011;50692;53.314;-6.300;2022-10-31T09:10:51;10.60;;;2.47;;
64367;SDS011;50692;53.314;-6.300;2022-10-31T09:13:37;4.97;;;1.70;;
64367;SDS011;50692;53.314;-6.300;2022-10-31T09:16:23;6.40;;;1.63;;
64367;SDS011;50692;53.314;-6.300;2022-10-31T09:19:09;3.17;;;1.30;;
64367;SDS011;50692;53.314;-6.300;2022-10-31T09:21:54;4.57;;;1.38;;
64367;SDS011;50692;53.314;-6.300;2022-10-31T09:24:40;4.13;;;1.00;;
64367;SDS011;50692;53.314;-6.300;2022-10-31T09:27:26;4.60;;;1.38;;
64367;SDS011;50692;53.314;-6.300;2022-10-31T09:30:12;5.28;;;1.58;;
64367;SDS011;50692;53.314;-6.300;2022-10-31T09:32:58;7.28;;;1.65;;
64367;SDS011;50692;53.314;-6.300;2022-10-31T09:35:46;5.70;;;1.58;;
64367;SDS011;50692;53.314;-6.300;2022-10-31T09:38:32;5.80;;;1.67;;
64367;SDS011;50692;53.314;-6.300;2022-10-31T09:41:24;4.85;;;1.48;;
64367;SDS011;50692;53.314;-6.300;2022-10-31T09:44:15;4.38;;;1.63;;
64367;SDS011;50692;53.314;-6.300;2022-10-31T09:53:26;4.38;;;1.52;;
64367;SDS011;50692;53.314;-6.300;2022-10-31T09:56:16;3.83;;;1.35;;
64367;SDS011;50692;53.314;-6.300;2022-10-31T09:59:08;3.75;;;1.67;;
64367;SDS011;50692;53.314;-6.300;2022-10-31T10:04:53;3.20;;;1.42;;
64367;SDS011;50692;53.314;-6.300;2022-10-31T10:08:18;4.43;;;1.58;;
64367;SDS011;50692;53.314;-6.300;2022-10-31T10:23:51;4.53;;;1.45;;
64367;SDS011;50692;53.314;-6.300;2022-10-31T10:26:37;5.43;;;1.95;;
64367;SDS011;50692;53.314;-6.300;2022-10-31T10:29:33;3.80;;;1.63;;
64367;SDS011;50692;53.314;-6.300;2022-10-31T10:32:27;3.83;;;1.50;;
64367;SDS011;50692;53.314;-6.300;2022-10-31T10:41:24;6.70;;;1.40;;
64367;SDS011;50692;53.314;-6.300;2022-10-31T10:44:16;3.55;;;1.73;;
64367;SDS011;50692;53.314;-6.300;2022-10-31T10:47:01;6.13;;;1.83;;
64367;SDS011;50692;53.314;-6.300;2022-10-31T10:50:11;6.22;;;1.40;;
64367;SDS011;50692;53.314;-6.300;2022-10-31T10:56:20;4.90;;;1.52;;
64367;SDS011;50692;53.314;-6.300;2022-10-31T10:59:19;4.70;;;2.15;;
64367;SDS011;50692;53.314;-6.300;2022-10-31T11:02:16;4.43;;;1.70;;
64367;SDS011;50692;53.314;-6.300;2022-10-31T11:05:02;4.63;;;1.95;;
64367;SDS011;50692;53.314;-6.300;2022-10-31T11:07:49;4.10;;;1.55;;
64367;SDS011;50692;53.314;-6.300;2022-10-31T11:10:35;4.45;;;1.85;;
64367;SDS011;50692;53.314;-6.300;2022-10-31T11:13:21;4.72;;;1.75;;
64367;SDS011;50692;53.314;-6.300;2022-10-31T11:16:10;5.57;;;2.00;;
64367;SDS011;50692;53.314;-6.300;2022-10-31T11:22:17;4.03;;;1.60;;
64367;SDS011;50692;53.314;-6.300;2022-10-31T11:28:10;3.65;;;1.25;;
64367;SDS011;50692;53.314;-6.300;2022-10-31T11:30:56;3.72;;;1.42;;
64367;SDS011;50692;53.314;-6.300;2022-10-31T11:33:45;4.93;;;1.52;;
64367;SDS011;50692;53.314;-6.300;2022-10-31T11:36:37;5.18;;;1.75;;
64367;SDS011;50692;53.314;-6.300;2022-10-31T11:39:24;4.47;;;1.45;;
64367;SDS011;50692;53.314;-6.300;2022-10-31T11:42:10;5.93;;;1.90;;
64367;SDS011;50692;53.314;-6.300;2022-10-31T11:44:57;6.63;;;1.73;;
64367;SDS011;50692;53.314;-6.300;2022-10-31T11:47:44;4.03;;;1.88;;
64367;SDS011;50692;53.314;-6.300;2022-10-31T11:50:40;6.30;;;1.85;;
64367;SDS011;50692;53.314;-6.300;2022-10-31T11:53:28;6.10;;;1.50;;
64367;SDS011;50692;53.314;-6.300;2022-10-31T11:56:16;6.93;;;1.90;;
64367;SDS011;50692;53.314;-6.300;2022-10-31T11:59:05;5.65;;;1.70;;
64367;SDS011;50692;53.314;-6.300;2022-10-31T12:02:14;3.10;;;1.10;;
64367;SDS011;50692;53.314;-6.300;2022-10-31T12:05:06;4.35;;;1.60;;
64367;SDS011;50692;53.314;-6.300;2022-10-31T12:08:03;4.57;;;1.60;;
64367;SDS011;50692;53.314;-6.300;2022-10-31T12:10:51;4.50;;;1.63;;
64367;SDS011;50692;53.314;-6.300;2022-10-31T12:14:15;3.92;;;1.65;;
64367;SDS011;50692;53.314;-6.300;2022-10-31T12:17:18;3.50;;;1.70;;
64367;SDS011;50692;53.314;-6.300;2022-10-31T12:20:25;5.03;;;1.52;;
64367;SDS011;50692;53.314;-6.300;2022-10-31T12:23:39;6.03;;;2.20;;
64367;SDS011;50692;53.314;-6.300;2022-10-31T12:32:47;3.05;;;1.30;;
64367;SDS011;50692;53.314;-6.300;2022-10-31T13:02:57;5.82;;;1.70;;
64367;SDS011;50692;53.314;-6.300;2022-10-31T13:05:54;6.80;;;1.77;;
64367;SDS011;50692;53.314;-6.300;2022-10-31T13:08:50;5.22;;;1.73;;
64367;SDS011;50692;53.314;-6.300;2022-10-31T13:11:45;6.40;;;2.10;;
64367;SDS011;50692;53.314;-6.300;2022-10-31T13:17:30;4.75;;;1.77;;
64367;SDS011;50692;53.314;-6.300;2022-10-31T13:23:30;5.68;;;2.10;;
64367;SDS011;50692;53.314;-6.300;2022-10-31T13:26:24;6.10;;;2.00;;
64367;SDS011;50692;53.314;-6.300;2022-10-31T13:29:33;4.60;;;2.13;;
64367;SDS011;50692;53.314;-6.300;2022-10-31T13:32:26;7.13;;;1.70;;
64367;SDS011;50692;53.314;-6.300;2022-10-31T13:35:23;6.38;;;1.73;;
64367;SDS011;50692;53.314;-6.300;2022-10-31T13:40:58;6.57;;;2.20;;
64367;SDS011;50692;53.314;-6.300;2022-10-31T13:47:24;4.85;;;1.60;;
64367;SDS011;50692;53.314;-6.300;2022-10-31T13:58:58;4.78;;;1.77;;
64367;SDS011;50692;53.314;-6.300;2022-10-31T14:01:53;4.05;;;1.70;;
64367;SDS011;50692;53.314;-6.300;2022-10-31T14:07:32;4.95;;;1.70;;
64367;SDS011;50692;53.314;-6.300;2022-10-31T14:10:35;6.05;;;1.98;;
64367;SDS011;50692;53.314;-6.300;2022-10-31T14:13:32;4.38;;;1.50;;
64367;SDS011;50692;53.314;-6.300;2022-10-31T14:16:27;5.72;;;1.80;;
64367;SDS011;50692;53.314;-6.300;2022-10-31T14:19:19;6.65;;;1.90;;
64367;SDS011;50692;53.314;-6.300;2022-10-31T14:22:18;5.72;;;1.83;;
64367;SDS011;50692;53.314;-6.300;2022-10-31T14:25:25;3.25;;;1.63;;
64367;SDS011;50692;53.314;-6.300;2022-10-31T14:28:21;5.10;;;2.00;;
64367;SDS011;50692;53.314;-6.300;2022-10-31T14:34:23;4.15;;;1.83;;
64367;SDS011;50692;53.314;-6.300;2022-10-31T14:46:42;5.00;;;1.40;;
64367;SDS011;50692;53.314;-6.300;2022-10-31T14:52:36;5.45;;;1.67;;
64367;SDS011;50692;53.314;-6.300;2022-10-31T14:55:23;6.65;;;1.92;;
64367;SDS011;50692;53.314;-6.300;2022-10-31T14:58:14;6.03;;;1.60;;
64367;SDS011;50692;53.314;-6.300;2022-10-31T15:01:04;7.38;;;2.00;;
64367;SDS011;50692;53.314;-6.300;2022-10-31T15:03:51;6.15;;;1.92;;
64367;SDS011;50692;53.314;-6.300;2022-10-31T15:06:41;3.78;;;1.70;;
64367;SDS011;50692;53.314;-6.300;2022-10-31T15:09:31;5.47;;;1.60;;
64367;SDS011;50692;53.314;-6.300;2022-10-31T15:12:28;8.83;;;1.70;;
64367;SDS011;50692;53.314;-6.300;2022-10-31T15:15:18;2.72;;;1.20;;
64367;SDS011;50692;53.314;-6.300;2022-10-31T15:18:07;3.15;;;1.42;;
64367;SDS011;50692;53.314;-6.300;2022-10-31T15:21:00;2.42;;;1.30;;
64367;SDS011;50692;53.314;-6.300;2022-10-31T15:23:46;2.10;;;1.10;;
64367;SDS011;50692;53.314;-6.300;2022-10-31T15:26:35;2.53;;;0.80;;
64367;SDS011;50692;53.314;-6.300;2022-10-31T15:29:27;2.47;;;1.20;;
64367;SDS011;50692;53.314;-6.300;2022-10-31T15:32:18;4.28;;;2.15;;
64367;SDS011;50692;53.314;-6.300;2022-10-31T15:35:09;3.65;;;1.85;;
64367;SDS011;50692;53.314;-6.300;2022-10-31T15:37:56;2.80;;;1.20;;
64367;SDS011;50692;53.314;-6.300;2022-10-31T15:40:50;4.85;;;1.73;;
64367;SDS011;50692;53.314;-6.300;2022-10-31T15:43:39;4.00;;;1.73;;
64367;SDS011;50692;53.314;-6.300;2022-10-31T15:46:25;3.63;;;2.22;;
64367;SDS011;50692;53.314;-6.300;2022-10-31T15:49:21;4.65;;;1.55;;
64367;SDS011;50692;53.314;-6.300;2022-10-31T15:55:20;4.40;;;3.00;;
64367;SDS011;50692;53.314;-6.300;2022-10-31T15:58:11;4.18;;;2.20;;
64367;SDS011;50692;53.314;-6.300;2022-10-31T16:01:03;4.25;;;2.60;;
64367;SDS011;50692;53.314;-6.300;2022-10-31T16:07:00;6.93;;;5.95;;
64367;SDS011;50692;53.314;-6.300;2022-10-31T16:12:44;6.05;;;2.70;;
64367;SDS011;50692;53.314;-6.300;2022-10-31T16:15:31;4.63;;;2.80;;
64367;SDS011;50692;53.314;-6.300;2022-10-31T16:18:18;6.22;;;2.90;;
64367;SDS011;50692;53.314;-6.300;2022-10-31T16:21:04;7.55;;;5.05;;
64367;SDS011;50692;53.314;-6.300;2022-10-31T16:23:53;9.50;;;8.50;;
64367;SDS011;50692;53.314;-6.300;2022-10-31T16:26:46;7.78;;;4.65;;
64367;SDS011;50692;53.314;-6.300;2022-10-31T16:29:43;4.95;;;4.35;;
64367;SDS011;50692;53.314;-6.300;2022-10-31T16:32:36;6.70;;;4.22;;
64367;SDS011;50692;53.314;-6.300;2022-10-31T16:35:38;7.15;;;3.97;;
64367;SDS011;50692;53.314;-6.300;2022-10-31T16:38:24;6.45;;;3.80;;
64367;SDS011;50692;53.314;-6.300;2022-10-31T16:41:10;5.90;;;4.28;;
64367;SDS011;50692;53.314;-6.300;2022-10-31T16:43:56;8.63;;;4.55;;
64367;SDS011;50692;53.314;-6.300;2022-10-31T16:46:41;6.68;;;3.75;;
64367;SDS011;50692;53.314;-6.300;2022-10-31T16:49:27;6.63;;;2.60;;
64367;SDS011;50692;53.314;-6.300;2022-10-31T16:52:13;5.65;;;3.22;;
64367;SDS011;50692;53.314;-6.300;2022-10-31T16:55:00;7.97;;;3.63;;
64367;SDS011;50692;53.314;-6.300;2022-10-31T16:57:47;6.30;;;3.50;;
64367;SDS011;50692;53.314;-6.300;2022-10-31T17:00:37;7.78;;;4.85;;
64367;SDS011;50692;53.314;-6.300;2022-10-31T17:03:23;6.70;;;5.13;;
64367;SDS011;50692;53.314;-6.300;2022-10-31T17:06:12;7.38;;;4.38;;
64367;SDS011;50692;53.314;-6.300;2022-10-31T17:08:58;6.22;;;2.97;;
64367;SDS011;50692;53.314;-6.300;2022-10-31T17:11:45;7.43;;;4.90;;
64367;SDS011;50692;53.314;-6.300;2022-10-31T17:14:33;8.05;;;5.32;;
64367;SDS011;50692;53.314;-6.300;2022-10-31T17:17:19;10.50;;;6.80;;
64367;SDS011;50692;53.314;-6.300;2022-10-31T17:20:15;11.18;;;8.13;;
64367;SDS011;50692;53.314;-6.300;2022-10-31T17:23:04;13.13;;;8.35;;
64367;SDS011;50692;53.314;-6.300;2022-10-31T17:25:50;10.73;;;6.57;;
64367;SDS011;50692;53.314;-6.300;2022-10-31T17:28:36;6.65;;;5.55;;
64367;SDS011;50692;53.314;-6.300;2022-10-31T17:31:24;10.25;;;7.35;;
64367;SDS011;50692;53.314;-6.300;2022-10-31T17:34:13;10.70;;;6.30;;
64367;SDS011;50692;53.314;-6.300;2022-10-31T17:36:58;13.50;;;10.07;;
64367;SDS011;50692;53.314;-6.300;2022-10-31T17:39:44;17.27;;;13.73;;
64367;SDS011;50692;53.314;-6.300;2022-10-31T17:42:30;9.25;;;7.03;;
64367;SDS011;50692;53.314;-6.300;2022-10-31T17:45:16;8.95;;;5.22;;
64367;SDS011;50692;53.314;-6.300;2022-10-31T17:48:02;9.52;;;5.72;;
64367;SDS011;50692;53.314;-6.300;2022-10-31T17:50:48;13.68;;;8.55;;
64367;SDS011;50692;53.314;-6.300;2022-10-31T17:53:34;12.40;;;8.52;;
64367;SDS011;50692;53.314;-6.300;2022-10-31T17:56:19;14.68;;;9.40;;
64367;SDS011;50692;53.314;-6.300;2022-10-31T17:59:05;16.02;;;9.23;;
64367;SDS011;50692;53.314;-6.300;2022-10-31T18:01:51;13.63;;;7.72;;
64367;SDS011;50692;53.314;-6.300;2022-10-31T18:04:37;13.07;;;7.82;;
64367;SDS011;50692;53.314;-6.300;2022-10-31T18:07:25;14.27;;;9.10;;
64367;SDS011;50692;53.314;-6.300;2022-10-31T18:10:11;15.23;;;9.07;;
64367;SDS011;50692;53.314;-6.300;2022-10-31T18:12:56;15.30;;;9.43;;
64367;SDS011;50692;53.314;-6.300;2022-10-31T18:15:42;12.57;;;7.13;;
64367;SDS011;50692;53.314;-6.300;2022-10-31T18:18:28;8.40;;;7.05;;
64367;SDS011;50692;53.314;-6.300;2022-10-31T18:21:14;12.02;;;7.95;;
64367;SDS011;50692;53.314;-6.300;2022-10-31T18:23:59;13.45;;;8.18;;
64367;SDS011;50692;53.314;-6.300;2022-10-31T18:26:47;12.38;;;7.78;;
64367;SDS011;50692;53.314;-6.300;2022-10-31T18:29:33;18.75;;;8.23;;
64367;SDS011;50692;53.314;-6.300;2022-10-31T18:32:19;10.55;;;6.72;;
64367;SDS011;50692;53.314;-6.300;2022-10-31T18:35:05;11.73;;;6.40;;
64367;SDS011;50692;53.314;-6.300;2022-10-31T18:37:51;11.68;;;6.85;;
64367;SDS011;50692;53.314;-6.300;2022-10-31T18:40:37;15.23;;;8.65;;
64367;SDS011;50692;53.314;-6.300;2022-10-31T18:43:23;18.55;;;12.02;;
64367;SDS011;50692;53.314;-6.300;2022-10-31T18:46:11;14.13;;;10.40;;
64367;SDS011;50692;53.314;-6.300;2022-10-31T18:48:58;14.07;;;9.35;;
64367;SDS011;50692;53.314;-6.300;2022-10-31T18:51:45;14.85;;;9.35;;
64367;SDS011;50692;53.314;-6.300;2022-10-31T18:54:31;16.92;;;10.60;;
64367;SDS011;50692;53.314;-6.300;2022-10-31T18:57:17;14.82;;;10.23;;
64367;SDS011;50692;53.314;-6.300;2022-10-31T19:00:03;18.67;;;12.60;;
64367;SDS011;50692;53.314;-6.300;2022-10-31T19:02:50;16.25;;;12.35;;
64367;SDS011;50692;53.314;-6.300;2022-10-31T19:05:36;18.23;;;13.10;;
64367;SDS011;50692;53.314;-6.300;2022-10-31T19:08:21;19.90;;;12.90;;
64367;SDS011;50692;53.314;-6.300;2022-10-31T19:11:09;19.88;;;14.13;;
64367;SDS011;50692;53.314;-6.300;2022-10-31T19:13:56;23.48;;;16.80;;
64367;SDS011;50692;53.314;-6.300;2022-10-31T19:16:42;41.67;;;37.38;;
64367;SDS011;50692;53.314;-6.300;2022-10-31T19:19:28;30.55;;;27.25;;